Time;durP1;ratioP1;P1;durP2;ratioP2;P2;SDS_P1;SDS_P2;PMS_P1;PMS_P2;Temp;Humidity;BMP_temperature;BMP_pressure;BME280_temperature;BME280_humidity;BME280_pressure;Samples;Min_cycle;Max_cycle;Signal;HPM_P1;HPM_P2
2021/05/30 00:00:22;;;;;;;10.97;5.97;;;;;;;15.22;61.21;100262.47;126260;1099;104140;-78
2021/05/30 00:03:11;;;;;;;10.07;5.03;;;;;;;15.21;61.81;100258.07;125517;1099;104144;-78
2021/05/30 00:05:40;;;;;;;13.30;5.50;;;;;;;15.21;62.12;100258.95;125349;1099;104304;-78
2021/05/30 00:08:10;;;;;;;9.17;5.33;;;;;;;15.19;61.17;100255.41;126216;1099;104441;-78
2021/05/30 00:10:39;;;;;;;12.00;5.67;;;;;;;15.19;62.06;100259.78;126241;1099;104166;-78
2021/05/30 00:13:08;;;;;;;9.73;5.27;;;;;;;15.19;61.30;100260.70;126311;1099;105410;-78
2021/05/30 00:15:37;;;;;;;11.50;5.00;;;;;;;15.21;61.91;100255.42;126288;1099;104159;-76
2021/05/30 00:18:06;;;;;;;8.87;5.13;;;;;;;15.26;61.37;100256.37;126300;1099;104368;-78
2021/05/30 00:20:36;;;;;;;8.63;4.97;;;;;;;15.28;61.37;100254.62;126218;1099;104331;-77
2021/05/30 00:23:05;;;;;;;10.37;5.50;;;;;;;15.27;61.36;100255.51;126304;1099;104141;-78
2021/05/30 00:25:34;;;;;;;11.67;5.83;;;;;;;15.28;62.50;100252.85;126285;1098;104299;-78
2021/05/30 00:28:04;;;;;;;11.43;5.83;;;;;;;15.28;61.64;100251.97;126311;1099;104235;-77
2021/05/30 00:30:34;;;;;;;9.33;4.93;;;;;;;15.27;62.27;100255.51;126250;1099;104143;-77
2021/05/30 00:33:04;;;;;;;10.77;5.50;;;;;;;15.25;62.53;100250.20;126257;1099;104342;-77
2021/05/30 00:35:33;;;;;;;8.23;5.30;;;;;;;15.24;62.18;100253.70;126285;1099;104144;-77
2021/05/30 00:38:02;;;;;;;10.60;5.40;;;;;;;15.23;62.78;100240.47;126292;1099;104213;-78
2021/05/30 00:40:32;;;;;;;10.10;5.50;;;;;;;15.22;62.71;100236.95;126259;1099;104156;-78
2021/05/30 00:43:01;;;;;;;10.63;5.47;;;;;;;15.21;62.05;100242.22;126283;1099;104267;-78
2021/05/30 00:45:30;;;;;;;12.30;5.17;;;;;;;15.22;62.71;100234.30;126266;1099;104152;-78
2021/05/30 00:47:59;;;;;;;10.67;5.20;;;;;;;15.23;62.22;100235.18;126298;1099;104255;-78
2021/05/30 00:50:28;;;;;;;11.57;5.63;;;;;;;15.23;62.56;100235.18;126228;1098;104153;-77
2021/05/30 00:52:58;;;;;;;8.03;5.17;;;;;;;15.19;62.38;100238.64;126326;1099;104232;-78
2021/05/30 00:55:28;;;;;;;9.13;5.40;;;;;;;15.14;61.98;100237.70;126302;1099;104239;-77
2021/05/30 00:57:57;;;;;;;11.40;5.63;;;;;;;15.10;63.19;100247.36;126264;1099;104688;-78
2021/05/30 01:00:26;;;;;;;10.03;5.50;;;;;;;15.08;62.25;100236.77;126250;1099;105437;-78
2021/05/30 01:02:55;;;;;;;8.57;5.17;;;;;;;15.06;62.47;100230.55;126297;1099;104140;-78
2021/05/30 01:05:24;;;;;;;15.47;5.47;;;;;;;15.05;62.56;100235.81;126303;1099;104143;-78
2021/05/30 01:07:53;;;;;;;8.93;4.90;;;;;;;15.04;62.48;100239.34;126226;1099;104197;-76
2021/05/30 01:10:29;;;;;;;10.07;5.10;;;;;;;15.05;62.88;100239.37;126258;1099;104245;-77
2021/05/30 01:12:59;;;;;;;9.07;5.00;;;;;;;15.09;62.71;100243.80;126235;1099;104172;-77
2021/05/30 01:15:31;;;;;;;9.60;5.20;;;;;;;15.09;63.28;100243.80;125372;1099;104249;-77
2021/05/30 01:18:00;;;;;;;8.33;5.00;;;;;;;15.09;63.11;100240.29;126306;1099;104219;-77
2021/05/30 01:20:30;;;;;;;9.27;5.50;;;;;;;15.07;63.47;100250.84;126234;1099;105643;-78
2021/05/30 01:23:04;;;;;;;10.37;4.97;;;;;;;15.04;63.41;100250.80;126271;1099;104242;-79
2021/05/30 01:25:34;;;;;;;9.47;5.10;;;;;;;15.04;63.01;100252.56;126313;1099;104160;-78
2021/05/30 01:28:05;;;;;;;9.20;5.47;;;;;;;15.03;63.41;100258.70;126280;1099;104189;-78
2021/05/30 01:30:35;;;;;;;9.00;5.07;;;;;;;15.02;63.24;100259.55;126272;1099;104146;-78
2021/05/30 01:33:05;;;;;;;9.10;4.93;;;;;;;15.02;63.03;100256.91;126299;1099;104143;-77
2021/05/30 01:35:35;;;;;;;8.00;4.60;;;;;;;15.06;62.99;100254.33;126282;1099;104178;-78
2021/05/30 01:38:04;;;;;;;9.13;5.00;;;;;;;15.09;63.13;100256.14;126287;1098;104146;-78
2021/05/30 01:40:33;;;;;;;7.97;4.77;;;;;;;15.09;63.22;100250.86;126274;1099;104155;-78
2021/05/30 01:43:03;;;;;;;7.63;4.73;;;;;;;15.15;63.23;100253.58;126271;1099;104813;-77
2021/05/30 01:45:34;;;;;;;10.13;5.80;;;;;;;15.15;63.48;100257.98;126246;1099;104226;-77
2021/05/30 01:48:04;;;;;;;11.23;5.43;;;;;;;15.12;63.44;100256.19;126269;1099;104185;-78
2021/05/30 01:50:36;;;;;;;7.40;4.73;;;;;;;15.10;63.34;100258.80;126291;1098;104303;-78
2021/05/30 01:53:07;;;;;;;10.13;4.60;;;;;;;15.10;64.37;100253.52;126128;1099;104156;-78
2021/05/30 01:58:21;;;;;;;8.93;5.20;;;;;;;15.09;64.34;100246.45;126290;1099;104153;-78
2021/05/30 02:00:51;;;;;;;9.07;4.80;;;;;;;15.14;63.59;100250.92;126263;1099;104316;-76
2021/05/30 02:03:21;;;;;;;10.57;5.40;;;;;;;15.15;64.56;100252.70;126274;1099;104205;-78
2021/05/30 02:05:53;;;;;;;8.07;5.10;;;;;;;15.17;64.43;100241.27;126267;1099;104134;-78
2021/05/30 02:08:22;;;;;;;10.37;5.37;;;;;;;15.20;64.58;100256.28;126296;1099;104194;-76
2021/05/30 02:10:51;;;;;;;12.27;5.40;;;;;;;15.18;63.74;100255.39;126302;1099;104140;-77
2021/05/30 02:13:22;;;;;;;9.07;4.97;;;;;;;15.18;64.15;100263.31;126259;1098;104252;-77
2021/05/30 02:15:51;;;;;;;8.27;4.90;;;;;;;15.16;63.92;100260.66;126231;1099;104201;-77
2021/05/30 02:18:20;;;;;;;7.97;4.70;;;;;;;15.16;64.15;100259.74;126292;1099;104252;-78
2021/05/30 02:20:49;;;;;;;8.77;4.97;;;;;;;15.14;64.09;100258.84;126304;1099;104142;-77
2021/05/30 02:23:19;;;;;;;8.87;5.00;;;;;;;15.11;64.40;100264.97;126132;1099;104670;-77
2021/05/30 02:25:48;;;;;;;8.63;5.30;;;;;;;15.07;64.26;100256.12;126271;1099;104143;-76
2021/05/30 02:28:17;;;;;;;9.53;4.90;;;;;;;15.05;64.98;100252.58;126338;1099;104529;-77
2021/05/30 02:30:46;;;;;;;10.97;5.70;;;;;;;15.05;64.74;100263.15;126243;1099;104318;-78
2021/05/30 02:33:15;;;;;;;10.67;5.43;;;;;;;15.06;64.59;100264.02;126140;1099;101781;-78
2021/05/30 02:35:44;;;;;;;9.53;5.73;;;;;;;15.09;64.43;100264.95;126315;1099;105259;-78
2021/05/30 02:38:13;;;;;;;13.23;5.40;;;;;;;15.12;65.18;100271.16;126289;1098;104146;-78
2021/05/30 02:40:45;;;;;;;9.73;5.67;;;;;;;15.15;65.30;100274.72;126266;1099;104166;-77
2021/05/30 02:43:14;;;;;;;10.40;4.83;;;;;;;15.12;64.19;100273.80;126230;1099;104322;-77
2021/05/30 02:45:43;;;;;;;9.53;5.57;;;;;;;15.08;64.55;100275.50;126311;1099;104149;-78
2021/05/30 02:48:13;;;;;;;9.50;5.40;;;;;;;15.07;64.92;100273.74;126296;1098;104265;-78
2021/05/30 02:50:42;;;;;;;8.40;5.00;;;;;;;15.06;65.44;100279.88;126281;1099;104265;-78
2021/05/30 02:53:11;;;;;;;9.20;5.30;;;;;;;15.06;65.46;100290.45;126256;1099;104271;-77
2021/05/30 02:55:40;;;;;;;9.63;4.80;;;;;;;15.06;65.39;100286.05;126227;1098;104226;-78
2021/05/30 02:58:09;;;;;;;8.53;5.13;;;;;;;15.08;65.08;100296.64;126266;1099;104166;-80
2021/05/30 03:00:39;;;;;;;7.50;5.00;;;;;;;15.10;65.55;100293.16;126241;1099;104302;-77
2021/05/30 03:03:09;;;;;;;8.23;5.13;;;;;;;15.11;65.39;100291.39;126219;1099;104137;-78
2021/05/30 03:05:38;;;;;;;9.07;4.73;;;;;;;15.12;64.71;100302.88;126303;1098;104201;-78
2021/05/30 03:08:08;;;;;;;7.10;4.90;;;;;;;15.08;65.33;100297.55;126290;1099;104140;-78
2021/05/30 03:10:37;;;;;;;7.93;4.90;;;;;;;15.10;65.30;100294.92;126296;1099;104169;-78
2021/05/30 03:13:09;;;;;;;12.07;5.00;;;;;;;15.13;65.59;100283.48;126234;1099;104269;-77
2021/05/30 03:15:39;;;;;;;10.87;5.43;;;;;;;15.15;64.81;100284.42;126271;1099;104290;-78
2021/05/30 03:18:08;;;;;;;9.70;5.23;;;;;;;15.17;64.88;100291.48;126292;1099;104153;-77
2021/05/30 03:20:38;;;;;;;8.37;5.13;;;;;;;15.21;64.96;100293.30;126303;1099;104143;-77
2021/05/30 03:23:08;;;;;;;7.60;4.90;;;;;;;15.24;65.17;100290.70;126260;1099;104144;-77
2021/05/30 03:25:38;;;;;;;9.90;5.07;;;;;;;15.26;65.92;100288.08;126280;1099;104141;-78
2021/05/30 03:28:07;;;;;;;8.13;4.80;;;;;;;15.31;65.82;100286.38;126261;1099;104139;-79
2021/05/30 03:30:38;;;;;;;8.20;5.00;;;;;;;15.38;65.84;100282.05;126288;1099;104142;-77
2021/05/30 03:33:07;;;;;;;10.10;5.40;;;;;;;15.43;65.30;100277.73;126274;1099;104267;-78
2021/05/30 03:35:36;;;;;;;11.17;5.97;;;;;;;15.48;65.90;100289.23;126321;1099;104261;-78
2021/05/30 03:38:08;;;;;;;7.93;5.30;;;;;;;15.50;65.28;100281.33;126304;1099;104274;-78
2021/05/30 03:40:45;;;;;;;10.93;5.53;;;;;;;15.51;64.93;100277.82;126284;1099;104146;-78
2021/05/30 03:43:15;;;;;;;8.30;5.17;;;;;;;15.52;66.00;100284.86;126256;1099;104159;-78
2021/05/30 03:45:44;;;;;;;7.37;5.23;;;;;;;15.53;65.05;100287.52;126288;1099;104245;-77
2021/05/30 03:48:13;;;;;;;8.70;5.03;;;;;;;15.59;65.05;100282.31;126281;1099;104249;-78
2021/05/30 03:50:42;;;;;;;11.80;6.30;;;;;;;15.62;64.97;100273.53;126279;1098;104307;-78
2021/05/30 03:53:12;;;;;;;8.97;5.50;;;;;;;15.66;65.75;100269.16;126243;1099;104133;-77
2021/05/30 03:55:41;;;;;;;8.77;5.13;;;;;;;15.69;65.29;100271.84;126255;1099;104143;-78
2021/05/30 03:58:10;;;;;;;9.17;5.17;;;;;;;15.75;66.01;100274.55;126274;1099;104163;-78
2021/05/30 04:00:40;;;;;;;10.67;5.37;;;;;;;15.79;65.60;100266.70;126317;1099;104133;-76
2021/05/30 04:03:11;;;;;;;8.67;5.43;;;;;;;15.88;66.02;100278.24;126301;1099;104155;-78
2021/05/30 04:05:40;;;;;;;10.53;5.60;;;;;;;15.95;65.19;100274.80;126212;1099;104299;-78
2021/05/30 04:08:09;;;;;;;7.83;5.37;;;;;;;15.95;65.02;100269.51;126280;1099;104233;-78
2021/05/30 04:10:38;;;;;;;10.00;5.90;;;;;;;15.95;65.37;100275.67;126331;1099;104226;-77
2021/05/30 04:13:07;;;;;;;11.70;5.43;;;;;;;15.95;65.56;100280.97;126317;1099;104236;-77
2021/05/30 04:15:36;;;;;;;8.70;5.43;;;;;;;15.97;65.67;100275.69;126239;1099;104567;-78
2021/05/30 04:18:06;;;;;;;8.55;5.00;;;;;;;16.03;65.18;100265.17;126195;1099;104351;-75
2021/05/30 04:20:35;;;;;;;8.03;5.30;;;;;;;16.09;65.93;100278.46;126252;1098;104192;-77
2021/05/30 04:23:04;;;;;;;10.00;5.30;;;;;;;16.13;65.22;100279.41;126277;1099;104229;-77
2021/05/30 04:25:33;;;;;;;9.60;5.60;;;;;;;16.11;65.74;100276.74;126161;1099;104237;-77
2021/05/30 04:28:02;;;;;;;9.57;5.07;;;;;;;16.06;65.07;100266.97;126326;1098;104130;-78
2021/05/30 04:30:31;;;;;;;7.73;5.13;;;;;;;16.03;64.95;100273.11;126210;1099;104284;-78
2021/05/30 04:33:01;;;;;;;8.00;4.75;;;;;;;16.03;65.41;100281.05;126214;1099;104166;-75
2021/05/30 04:35:30;;;;;;;10.60;5.50;;;;;;;16.09;65.12;100283.75;126236;1099;104134;-76
2021/05/30 04:37:59;;;;;;;8.43;5.20;;;;;;;16.18;65.04;100282.97;126298;1099;104242;-77
2021/05/30 04:40:28;;;;;;;9.87;5.80;;;;;;;16.22;65.25;100276.84;125363;1099;104178;-78
2021/05/30 04:42:57;;;;;;;10.33;5.90;;;;;;;16.23;65.62;100264.48;126213;1099;104143;-78
2021/05/30 04:45:26;;;;;;;11.67;5.23;;;;;;;16.25;65.04;100273.31;126287;1099;104191;-77
2021/05/30 04:47:56;;;;;;;11.27;5.57;;;;;;;16.25;65.02;100273.31;126239;1099;104188;-78
2021/05/30 04:50:25;;;;;;;11.53;4.90;;;;;;;16.33;65.22;100268.96;126310;1099;104202;-78
2021/05/30 04:52:54;;;;;;;10.20;5.33;;;;;;;16.40;65.76;100270.80;126298;1099;104226;-76
2021/05/30 04:55:23;;;;;;;9.63;5.60;;;;;;;16.49;65.05;100273.52;126066;1099;104146;-78
2021/05/30 04:57:53;;;;;;;8.47;5.20;;;;;;;16.58;65.34;100269.16;126224;1099;104213;-77
2021/05/30 05:00:22;;;;;;;11.33;5.40;;;;;;;16.67;65.62;100275.44;126305;1099;104192;-77
2021/05/30 05:02:51;;;;;;;10.97;5.30;;;;;;;16.73;65.19;100266.63;126295;1099;104147;-77
2021/05/30 05:05:20;;;;;;;10.70;5.63;;;;;;;16.76;65.34;100274.59;126218;1099;104152;-77
2021/05/30 05:07:50;;;;;;;7.87;5.33;;;;;;;16.80;64.84;100275.52;126279;1099;104983;-77
2021/05/30 05:10:19;;;;;;;9.80;5.20;;;;;;;16.84;64.98;100280.86;126302;1099;104139;-77
2021/05/30 05:12:48;;;;;;;8.80;4.90;;;;;;;16.92;64.92;100277.38;126266;1099;104226;-78
2021/05/30 05:15:17;;;;;;;10.50;5.33;;;;;;;17.04;64.88;100283.63;126235;1099;104227;-78
2021/05/30 05:17:46;;;;;;;10.37;5.03;;;;;;;17.21;65.10;100296.98;126310;1099;104285;-78
2021/05/30 05:20:15;;;;;;;7.13;4.87;;;;;;;17.29;65.01;100293.50;126280;1099;104243;-78
2021/05/30 05:22:44;;;;;;;8.07;5.47;;;;;;;17.31;64.98;100294.38;126297;1099;104188;-78
2021/05/30 05:25:14;;;;;;;14.47;5.43;;;;;;;17.34;64.99;100297.05;126197;1099;104149;-78
2021/05/30 05:27:44;;;;;;;8.33;5.30;;;;;;;17.38;64.83;100290.89;125348;1099;104246;-77
2021/05/30 05:30:16;;;;;;;8.73;4.97;;;;;;;17.37;64.71;100294.41;126310;1098;104188;-77
2021/05/30 05:32:45;;;;;;;9.00;4.97;;;;;;;17.39;64.41;100295.30;126292;1099;104361;-78
2021/05/30 05:35:14;;;;;;;7.93;5.10;;;;;;;17.41;64.54;100285.60;126250;1099;104277;-78
2021/05/30 05:37:43;;;;;;;8.23;5.47;;;;;;;17.43;64.71;100283.83;126297;1098;104149;-77
2021/05/30 05:40:14;;;;;;;9.90;5.30;;;;;;;17.47;64.32;100288.28;126300;1099;104178;-77
2021/05/30 05:42:43;;;;;;;9.53;5.33;;;;;;;17.48;64.54;100290.03;126250;1099;104297;-76
2021/05/30 05:45:14;;;;;;;8.43;5.23;;;;;;;17.50;64.42;100301.55;126204;1099;104341;-76
2021/05/30 05:47:43;;;;;;;8.33;4.37;;;;;;;17.52;64.42;100302.44;126090;1099;105465;-76
2021/05/30 05:50:14;;;;;;;6.97;4.57;;;;;;;17.51;64.14;100302.44;126294;1099;104136;-77
2021/05/30 05:52:45;;;;;;;9.17;4.70;;;;;;;17.53;64.51;100309.53;126249;1099;104213;-77
2021/05/30 05:55:15;;;;;;;10.97;5.17;;;;;;;17.58;64.12;100302.47;126296;1099;104156;-77
2021/05/30 05:57:47;;;;;;;8.07;5.00;;;;;;;17.57;64.15;100305.11;126188;1099;104367;-77
2021/05/30 06:00:19;;;;;;;9.73;5.13;;;;;;;17.55;64.16;100317.49;126297;1099;104261;-77
2021/05/30 06:02:50;;;;;;;9.17;4.80;;;;;;;17.56;64.04;100313.94;126237;1099;104194;-77
2021/05/30 06:05:21;;;;;;;8.87;5.50;;;;;;;17.58;64.11;100312.20;126244;1099;104172;-77
2021/05/30 06:07:52;;;;;;;7.80;4.87;;;;;;;17.63;64.21;100320.18;126262;1099;104165;-77
2021/05/30 06:10:25;;;;;;;10.03;4.80;;;;;;;17.73;64.04;100319.31;126264;1099;104168;-77
2021/05/30 06:12:56;;;;;;;7.07;4.90;;;;;;;17.86;63.82;100320.27;126284;1099;104713;-76
2021/05/30 06:15:26;;;;;;;8.30;4.53;;;;;;;17.97;63.75;100323.86;125341;1099;104190;-77
2021/05/30 06:17:57;;;;;;;10.17;5.30;;;;;;;17.97;63.50;100329.17;126061;1099;104150;-77
2021/05/30 06:20:27;;;;;;;8.47;5.40;;;;;;;17.93;63.56;100325.59;126256;1099;104335;-77
2021/05/30 06:22:56;;;;;;;8.40;5.43;;;;;;;17.88;63.71;100322.05;126236;1099;104137;-76
2021/05/30 06:25:26;;;;;;;11.97;5.70;;;;;;;17.92;63.81;100317.63;126306;1099;104143;-78
2021/05/30 06:27:56;;;;;;;8.70;4.90;;;;;;;18.01;63.60;100324.74;126147;1099;104203;-77
2021/05/30 06:30:27;;;;;;;7.80;5.23;;;;;;;18.06;63.54;100326.54;126313;1099;104175;-77
2021/05/30 06:32:57;;;;;;;9.67;5.50;;;;;;;18.03;63.45;100323.88;126294;1098;104184;-78
2021/05/30 06:35:28;;;;;;;6.40;4.70;;;;;;;18.01;63.55;100330.05;126269;1099;104453;-77
2021/05/30 06:37:58;;;;;;;8.63;5.00;;;;;;;17.90;63.21;100325.63;126233;1099;104258;-77
2021/05/30 06:40:27;;;;;;;9.87;5.33;;;;;;;17.78;63.14;100330.85;126316;1099;104200;-78
2021/05/30 06:42:56;;;;;;;8.73;5.37;;;;;;;17.70;63.26;100325.52;126310;1099;104153;-78
2021/05/30 06:45:26;;;;;;;9.17;5.33;;;;;;;17.67;63.28;100332.56;126283;1099;104332;-78
2021/05/30 06:47:56;;;;;;;11.20;5.60;;;;;;;17.65;63.32;100331.67;126271;1099;104169;-77
2021/05/30 06:50:25;;;;;;;9.20;4.87;;;;;;;17.63;63.16;100329.02;126300;1099;104188;-77
2021/05/30 06:52:55;;;;;;;7.33;4.90;;;;;;;17.61;63.52;100331.66;126193;1099;104165;-77
2021/05/30 06:55:24;;;;;;;9.03;5.20;;;;;;;17.64;63.45;100332.55;126301;1099;104140;-78
2021/05/30 06:57:53;;;;;;;9.40;5.13;;;;;;;17.64;63.39;100329.89;125298;1099;104143;-77
2021/05/30 07:00:23;;;;;;;9.30;5.57;;;;;;;17.69;63.31;100336.13;126254;1099;105120;-77
2021/05/30 07:02:52;;;;;;;10.03;5.50;;;;;;;17.74;63.34;100334.36;126298;1098;104159;-77
2021/05/30 07:05:22;;;;;;;10.10;5.20;;;;;;;17.77;63.19;100331.72;126256;1099;104191;-77
2021/05/30 07:07:52;;;;;;;12.30;5.63;;;;;;;17.81;63.22;100330.86;126285;1099;104675;-77
2021/05/30 07:10:21;;;;;;;11.67;5.33;;;;;;;17.87;63.14;100330.88;125351;1099;104245;-78
2021/05/30 07:12:50;;;;;;;7.20;5.17;;;;;;;17.91;63.04;100324.72;126279;1099;104139;-77
2021/05/30 07:15:19;;;;;;;8.60;5.40;;;;;;;17.88;63.01;100327.36;126256;1099;104219;-78
2021/05/30 07:17:48;;;;;;;8.30;5.00;;;;;;;17.88;62.77;100331.76;126171;1099;104153;-77
2021/05/30 07:20:18;;;;;;;8.37;5.40;;;;;;;17.86;62.75;100329.10;126188;1099;104265;-77
2021/05/30 07:22:47;;;;;;;8.60;5.40;;;;;;;17.83;63.09;100339.70;126295;1097;104162;-77
2021/05/30 07:25:17;;;;;;;9.17;5.40;;;;;;;17.79;62.93;100333.52;126247;1099;104349;-77
2021/05/30 07:27:46;;;;;;;6.43;5.00;;;;;;;17.79;62.78;100336.16;126134;1099;104220;-77
2021/05/30 07:30:16;;;;;;;8.17;5.30;;;;;;;17.82;62.86;100350.31;126284;1099;104246;-78
2021/05/30 07:32:46;;;;;;;6.57;4.77;;;;;;;17.89;62.78;100347.72;126282;1099;104207;-78
2021/05/30 07:35:15;;;;;;;8.63;4.83;;;;;;;18.07;62.84;100346.00;126276;1099;104223;-77
2021/05/30 07:37:44;;;;;;;10.95;5.15;;;;;;;18.26;62.64;100345.17;125167;1099;104392;-78
2021/05/30 07:40:14;;;;;;;6.80;4.83;;;;;;;18.46;62.70;100339.85;125204;1102;104142;-77
2021/05/30 07:42:45;;;;;;;9.80;5.30;;;;;;;18.70;62.64;100343.43;125271;1099;104150;-77
2021/05/30 07:45:18;;;;;;;7.60;4.93;;;;;;;18.85;62.22;100334.58;125254;1099;104149;-77
2021/05/30 07:47:47;;;;;;;8.43;4.83;;;;;;;19.01;61.89;100330.12;125258;1099;104303;-78
2021/05/30 07:50:18;;;;;;;7.77;5.00;;;;;;;19.12;62.13;100340.73;125182;1102;107808;-77
2021/05/30 07:52:47;;;;;;;9.23;5.37;;;;;;;19.15;61.58;100323.02;125294;1102;104212;-77
2021/05/30 07:55:17;;;;;;;8.90;5.20;;;;;;;19.16;61.70;100334.53;125200;1102;104252;-77
2021/05/30 07:57:47;;;;;;;10.27;4.60;;;;;;;19.16;61.15;100326.56;125310;1099;104203;-77
2021/05/30 08:00:19;;;;;;;7.43;4.90;;;;;;;19.18;61.27;100320.36;125256;1099;104262;-77
2021/05/30 08:02:48;;;;;;;8.97;4.80;;;;;;;19.24;61.53;100327.41;125208;1100;104589;-76
2021/05/30 08:05:20;;;;;;;8.57;4.97;;;;;;;19.27;61.45;100326.53;125235;1099;102029;-77
2021/05/30 08:07:51;;;;;;;6.53;4.67;;;;;;;19.26;61.50;100325.66;125239;1099;104143;-77
2021/05/30 08:10:22;;;;;;;7.80;4.67;;;;;;;19.24;60.96;100332.73;126097;1099;104146;-78
2021/05/30 08:12:51;;;;;;;7.67;5.13;;;;;;;19.22;60.69;100331.86;126320;1099;104169;-77
2021/05/30 08:15:21;;;;;;;12.07;5.40;;;;;;;19.21;60.59;100330.98;126249;1099;104152;-76
2021/05/30 08:17:52;;;;;;;10.40;5.13;;;;;;;19.24;60.80;100337.17;126274;1099;104146;-78
2021/05/30 08:20:24;;;;;;;7.90;4.97;;;;;;;19.31;61.02;100333.62;126218;1099;104137;-77
2021/05/30 08:22:53;;;;;;;8.37;5.40;;;;;;;19.40;60.71;100336.27;126271;1099;104185;-77
2021/05/30 08:25:22;;;;;;;9.27;5.53;;;;;;;19.50;60.89;100334.45;126284;1099;104136;-77
2021/05/30 08:27:52;;;;;;;12.23;5.73;;;;;;;19.63;60.84;100330.83;126206;1099;104743;-77
2021/05/30 08:30:22;;;;;;;7.90;5.30;;;;;;;19.81;60.50;100337.02;126245;1099;104144;-76
2021/05/30 08:32:51;;;;;;;9.37;5.50;;;;;;;19.97;60.84;100329.83;126233;1099;104255;-76
2021/05/30 08:35:21;;;;;;;9.33;5.00;;;;;;;20.13;59.56;100338.61;126225;1099;104143;-77
2021/05/30 08:37:50;;;;;;;8.90;5.20;;;;;;;20.14;59.60;100335.06;126238;1099;104149;-77
2021/05/30 08:40:19;;;;;;;9.07;4.90;;;;;;;20.16;59.20;100327.93;126201;1099;104188;-78
2021/05/30 08:42:48;;;;;;;8.60;5.30;;;;;;;20.25;60.20;100331.41;126305;1099;104236;-77
2021/05/30 08:45:19;;;;;;;9.37;4.90;;;;;;;20.37;59.53;100332.24;126298;1099;104271;-77
2021/05/30 08:47:48;;;;;;;7.83;5.10;;;;;;;20.40;59.46;100334.89;126321;1099;104261;-76
2021/05/30 08:50:18;;;;;;;6.63;4.53;;;;;;;20.52;59.81;100334.80;126219;1099;105572;-76
2021/05/30 08:52:47;;;;;;;8.37;5.10;;;;;;;20.59;59.34;100335.63;126261;1099;104290;-77
2021/05/30 08:55:16;;;;;;;9.20;4.80;;;;;;;20.57;59.02;100337.39;126280;1099;104267;-77
2021/05/30 08:57:45;;;;;;;6.57;4.53;;;;;;;20.50;59.49;100335.69;126253;1099;104146;-77
2021/05/30 09:00:21;;;;;;;11.53;4.63;;;;;;;20.44;59.00;100341.94;126249;1099;104159;-77
2021/05/30 09:03:13;;;;;;;8.03;4.50;;;;;;;20.43;58.87;100341.06;126318;1098;104293;-77
2021/05/30 09:05:43;;;;;;;6.63;4.30;;;;;;;20.36;58.26;100343.78;126154;1099;104197;-76
2021/05/30 09:08:30;;;;;;;7.13;4.53;;;;;;;20.27;58.50;100345.63;126159;1099;104162;-77
2021/05/30 09:10:59;;;;;;;6.63;4.50;;;;;;;20.17;58.32;100351.02;126285;1099;104146;-78
2021/05/30 09:13:34;;;;;;;7.93;4.60;;;;;;;20.08;57.77;100351.95;126305;1099;104341;-77
2021/05/30 09:16:09;;;;;;;6.93;4.43;;;;;;;20.03;58.01;100351.97;126227;1099;104256;-76
2021/05/30 09:18:40;;;;;;;9.00;3.97;;;;;;;20.04;57.66;100356.42;126283;1098;104325;-76
2021/05/30 09:21:12;;;;;;;6.17;3.90;;;;;;;19.99;57.38;100355.56;126295;1099;104191;-77
2021/05/30 09:23:42;;;;;;;6.43;4.10;;;;;;;19.95;57.81;100355.59;126230;1099;104236;-78
2021/05/30 09:26:14;;;;;;;5.10;3.80;;;;;;;19.86;57.48;100353.84;126285;1099;104134;-77
2021/05/30 09:29:04;;;;;;;5.83;4.23;;;;;;;19.78;57.46;100351.22;126285;1099;104166;-77
2021/05/30 09:31:34;;;;;;;7.77;4.10;;;;;;;19.75;57.83;100351.20;126260;1098;104236;-78
2021/05/30 09:34:25;;;;;;;6.30;4.00;;;;;;;19.75;57.98;100348.53;126225;1099;104615;-78
2021/05/30 09:36:55;;;;;;;5.50;3.80;;;;;;;19.83;57.91;100345.87;126307;1099;104146;-76
2021/05/30 09:39:36;;;;;;;6.73;4.20;;;;;;;19.92;57.38;100349.36;126233;1099;104169;-77
2021/05/30 09:42:32;;;;;;;6.80;4.03;;;;;;;20.05;57.33;100350.17;125185;1102;104232;-78
2021/05/30 09:45:03;;;;;;;5.60;3.90;;;;;;;20.20;57.06;100349.21;125150;1102;104309;-77
2021/05/30 09:47:33;;;;;;;6.23;3.93;;;;;;;20.35;57.05;100348.23;125249;1102;104439;-78
2021/05/30 09:52:49;;;;;;;5.33;3.80;;;;;;;20.54;56.88;100345.45;124913;1105;106635;-77
2021/05/30 09:55:20;;;;;;;6.63;3.77;;;;;;;20.58;56.78;100336.51;124936;1106;103277;-77
2021/05/30 09:58:04;;;;;;;8.17;3.80;;;;;;;20.60;56.67;100342.70;124913;1105;104329;-77
2021/05/30 10:00:34;;;;;;;7.50;4.10;;;;;;;20.64;56.25;100339.13;124985;1105;104156;-76
2021/05/30 10:03:05;;;;;;;7.60;4.30;;;;;;;20.69;56.97;100337.33;124882;1105;111978;-76
2021/05/30 10:05:35;;;;;;;6.63;4.37;;;;;;;20.74;55.64;100335.53;124950;1105;102422;-77
2021/05/30 10:08:06;;;;;;;5.67;4.40;;;;;;;20.78;56.00;100334.58;124951;1105;104540;-77
2021/05/30 10:10:38;;;;;;;6.97;4.40;;;;;;;20.82;56.30;100333.67;124964;1105;104319;-77
2021/05/30 10:13:08;;;;;;;6.97;4.30;;;;;;;20.80;56.74;100338.14;124953;1105;104388;-77
2021/05/30 10:15:38;;;;;;;6.13;4.40;;;;;;;20.79;55.96;100335.48;124962;1105;104294;-79
2021/05/30 10:18:14;;;;;;;7.43;4.20;;;;;;;20.79;56.10;100339.03;124980;1105;104455;-78
2021/05/30 10:20:44;;;;;;;6.45;4.00;;;;;;;20.79;56.25;100346.16;125087;1102;104373;-77
2021/05/30 10:23:18;;;;;;;4.77;3.87;;;;;;;20.75;56.58;100347.06;125097;1102;104165;-77
2021/05/30 10:25:48;;;;;;;6.87;4.03;;;;;;;20.75;55.55;100353.27;125252;1102;104281;-78
2021/05/30 10:28:19;;;;;;;5.67;3.80;;;;;;;20.76;55.49;100356.84;125217;1102;104153;-78
2021/05/30 10:30:51;;;;;;;7.37;3.70;;;;;;;20.80;55.52;100354.14;125709;1099;104143;-76
2021/05/30 10:33:23;;;;;;;4.53;4.07;;;;;;;20.86;55.34;100346.97;126055;1099;104231;-76
2021/05/30 10:36:14;;;;;;;6.93;4.10;;;;;;;20.91;56.22;100340.72;126200;1099;104346;-77
2021/05/30 10:38:45;;;;;;;9.03;4.10;;;;;;;20.96;55.43;100354.00;126252;1099;104402;-77
2021/05/30 10:41:17;;;;;;;6.83;4.10;;;;;;;20.97;55.50;100347.75;126042;1099;104145;-76
2021/05/30 10:43:47;;;;;;;7.73;3.87;;;;;;;21.00;55.51;100353.06;126067;1099;104168;-77
2021/05/30 10:46:18;;;;;;;6.03;4.10;;;;;;;21.03;55.57;100353.03;126214;1099;104169;-77
2021/05/30 10:49:07;;;;;;;7.43;4.00;;;;;;;21.05;55.21;100351.25;126154;1099;104239;-77
2021/05/30 10:51:45;;;;;;;5.43;3.93;;;;;;;21.10;55.04;100346.75;126246;1099;104284;-77
2021/05/30 10:54:14;;;;;;;5.50;3.90;;;;;;;21.17;54.90;100351.09;126069;1099;113087;-78
2021/05/30 10:56:57;;;;;;;8.23;4.00;;;;;;;21.24;55.19;100357.28;126231;1099;104149;-77
2021/05/30 10:59:28;;;;;;;4.93;3.90;;;;;;;21.33;55.13;100362.52;126295;1099;104322;-77
2021/05/30 11:02:01;;;;;;;4.60;4.03;;;;;;;21.42;54.92;100364.19;126293;1099;104137;-77
2021/05/30 11:04:35;;;;;;;5.10;4.17;;;;;;;21.51;55.00;100361.45;126336;1099;104172;-77
2021/05/30 11:07:29;;;;;;;11.07;4.57;;;;;;;21.66;55.01;100359.48;126280;1099;104136;-76
2021/05/30 11:10:18;;;;;;;7.90;4.10;;;;;;;21.80;55.13;100356.64;125367;1099;104177;-76
2021/05/30 11:12:53;;;;;;;6.70;4.20;;;;;;;21.90;55.35;100351.17;126296;1099;104214;-77
2021/05/30 11:15:37;;;;;;;4.40;3.60;;;;;;;22.04;54.51;100355.45;126280;1099;104221;-77
2021/05/30 11:18:07;;;;;;;7.50;4.17;;;;;;;22.19;54.11;100352.56;126301;1099;104245;-77
2021/05/30 11:20:45;;;;;;;6.13;4.47;;;;;;;22.30;54.78;100348.83;126297;1099;104165;-76
2021/05/30 11:23:20;;;;;;;6.40;4.00;;;;;;;22.44;54.07;100360.25;126269;1099;104133;-77
2021/05/30 11:25:53;;;;;;;6.20;4.20;;;;;;;22.53;53.87;100352.09;126314;1099;104265;-77
2021/05/30 11:28:23;;;;;;;6.53;3.58;;;;;;;22.68;54.48;100356.29;126170;1099;104249;-76